Portada
METAR-TAF:

METAR-TAF

Aeropuertos :

Hanói, Vietnam

Aeropuerto Internacional de Nội Bài

latitud: 21-01N, longitud: 105-48E, altitud: 6 m

Observación

El informe se hizo hace 32 minutos, a las 12:30 UTC
Viento 3 kt del noreste, variando entre norte y este-noreste
Temperatura 19°C
Humedad 73%
Presión 1021 hPa
Visibilidad 10 km o más
sin nubes por debajo de 1500 m y sin presencia de cumulonimbus.

METAR: VVNB 261230Z 04003KT 360V060 CAVOK 19/14 Q1021 NOSIG

Hora: 20:02 (13:02 UTC)

Pronóstico

El informe se hizo hace 2 horas y 2 minutos, a las 11:00 UTC
Pronóstico válido del 26 a las 12 UTC al 27 a las 12 UTC
Viento 5 kt del norte-noreste
Visibilidad 10 km o más
sin nubes por debajo de 1500 m y sin presencia de cumulonimbus.

TAF: VVNB 261100Z 2612/2712 02005KT CAVOK

Observaciones y pronósticos meteorológicos de más de 4000 aeropuertos (mensajes METAR y TAF).

Los puntos amarillos y rojos representan las estaciones disponibles.

Ponga el ratón en el punto deseado para ver el nombre de la estación.

Haga clic para ver las observaciones y los pronósticos meteorológicos.

Para cambiar el mapa : haga clic en los botones verdes con una cruz de color negro para hacer un zoom, en el botón verde con un guión para alejar o en las flechas verdes para mapas adyacentes.


METAR-TAF: